Terminal Aerodrome Forecast
Issued by NWS

Home | Current Version | Previous Version | Text Only | Print | Product List | Glossary On
Versions: 1 2 3 4 5 6 7 8 9 10 11 12 13 14 15 16 17 18 19 20
000
FTUS43 KTOP 241100
TAFMHK
TAF
KMHK 241120Z 2412/2512 01010KT P6SM -SHRA VCTS SCT030 BKN050CB
     FM241500 35012G19KT P6SM VCSH BKN050
     FM241700 34015G22KT P6SM BKN100
     FM250000 27003KT P6SM SKC=

USA.gov is the U.S. government's official web portal to all federal, state and local government web resources and services.